createdAt,value
2022-11-19T00:01:13.800Z,-3.30
2022-11-19T00:03:42.569Z,-3.20
2022-11-19T00:06:12.289Z,-3.30
2022-11-19T00:08:40.256Z,-3.30
2022-11-19T00:11:10.164Z,-3.30
2022-11-19T00:13:38.756Z,-3.30
2022-11-19T00:16:08.837Z,-3.30
2022-11-19T00:18:36.002Z,-3.30
2022-11-19T00:21:07.455Z,-3.30
2022-11-19T00:23:34.594Z,-3.30
2022-11-19T00:26:12.939Z,-3.30
2022-11-19T00:28:41.224Z,-3.30
2022-11-19T00:31:11.297Z,-3.30
2022-11-19T00:33:40.186Z,-3.20
2022-11-19T00:36:10.125Z,-3.20
2022-11-19T00:38:37.701Z,-3.20
2022-11-19T00:41:05.470Z,-3.20
2022-11-19T00:43:48.354Z,-3.20
2022-11-19T00:46:19.360Z,-3.10
2022-11-19T00:48:48.705Z,-3.10
2022-11-19T00:51:17.220Z,-3.20
2022-11-19T00:53:44.562Z,-3.10
2022-11-19T00:56:13.624Z,-3.20
2022-11-19T00:58:41.331Z,-3.20
2022-11-19T01:01:09.729Z,-3.20
2022-11-19T01:03:37.690Z,-3.10
2022-11-19T01:06:04.800Z,-3.10
2022-11-19T01:08:31.903Z,-3.20
2022-11-19T01:11:17.778Z,-3.20
2022-11-19T01:13:44.840Z,-3.20
2022-11-19T01:16:33.859Z,-3.20
2022-11-19T01:19:01.402Z,-3.20
2022-11-19T01:21:30.667Z,-3.20
2022-11-19T01:23:58.397Z,-3.20
2022-11-19T01:26:26.272Z,-3.20
2022-11-19T01:28:54.336Z,-3.20
2022-11-19T01:31:25.339Z,-3.20
2022-11-19T01:33:53.367Z,-3.20
2022-11-19T01:36:24.001Z,-3.20
2022-11-19T01:38:52.292Z,-3.20
2022-11-19T01:41:20.589Z,-3.20
2022-11-19T01:44:09.031Z,-3.20
2022-11-19T01:46:38.641Z,-3.20
2022-11-19T01:49:25.613Z,-3.20
2022-11-19T01:51:58.017Z,-3.20
2022-11-19T01:54:38.123Z,-3.20
2022-11-19T01:57:10.959Z,-4.00
2022-11-19T01:59:39.460Z,-3.20
2022-11-19T02:02:06.476Z,-3.20
2022-11-19T02:04:35.436Z,-3.30
2022-11-19T02:07:02.846Z,-3.30
2022-11-19T02:09:33.043Z,-3.30
2022-11-19T02:12:27.759Z,-3.80
2022-11-19T02:15:21.793Z,-3.20
2022-11-19T02:18:08.076Z,-3.30
2022-11-19T02:21:14.771Z,-3.30
2022-11-19T02:24:21.490Z,-3.30
2022-11-19T02:27:28.288Z,-3.30
2022-11-19T02:30:10.718Z,-3.40
2022-11-19T02:33:01.161Z,-3.30
2022-11-19T02:35:57.748Z,-3.30
2022-11-19T02:38:37.341Z,-3.30
2022-11-19T02:41:34.821Z,-3.30
2022-11-19T02:44:47.246Z,-3.30
2022-11-19T02:47:37.809Z,-3.30
2022-11-19T02:50:11.986Z,-3.30
2022-11-19T02:52:40.509Z,-3.50
2022-11-19T02:55:08.425Z,-3.30
2022-11-19T02:57:36.254Z,-3.30
2022-11-19T03:00:25.935Z,-3.30
2022-11-19T03:03:34.798Z,-3.30
2022-11-19T03:06:07.400Z,-3.30
2022-11-19T03:08:34.451Z,-3.30
2022-11-19T03:11:23.946Z,-3.30
2022-11-19T03:14:36.616Z,-3.30
2022-11-19T03:17:29.200Z,-3.30
2022-11-19T03:20:18.949Z,-3.30
2022-11-19T03:22:54.854Z,-3.30
2022-11-19T03:25:44.408Z,-3.30
2022-11-19T03:28:21.952Z,-3.30
2022-11-19T03:30:51.006Z,-3.30
2022-11-19T03:33:24.436Z,-3.30
2022-11-19T03:35:55.878Z,-3.30
2022-11-19T03:38:29.990Z,-3.20
2022-11-19T03:40:58.107Z,-3.20
2022-11-19T03:43:29.446Z,-4.80
2022-11-19T03:45:58.006Z,-3.30
2022-11-19T03:48:27.098Z,-3.20
2022-11-19T03:51:00.204Z,-3.10
2022-11-19T03:53:28.895Z,-4.60
2022-11-19T03:56:01.004Z,-3.10
2022-11-19T03:58:28.225Z,-3.10
2022-11-19T04:00:55.248Z,-3.10
2022-11-19T04:03:22.249Z,-3.00
2022-11-19T04:05:52.293Z,-3.00
2022-11-19T04:08:19.265Z,-3.10
2022-11-19T04:10:46.302Z,-3.10
2022-11-19T04:13:13.307Z,-3.10
2022-11-19T04:15:40.477Z,-3.10
2022-11-19T04:18:08.212Z,-3.10
2022-11-19T04:20:35.214Z,-3.10
2022-11-19T04:23:02.350Z,-3.60
2022-11-19T04:25:29.406Z,-3.10
2022-11-19T04:27:56.436Z,-3.10
2022-11-19T04:30:23.636Z,-3.10
2022-11-19T04:32:50.602Z,-3.10
2022-11-19T04:35:22.015Z,-3.10
2022-11-19T04:37:49.393Z,-3.10
2022-11-19T04:40:17.078Z,-3.10
2022-11-19T04:42:44.080Z,-3.10
2022-11-19T04:45:11.704Z,-3.10
2022-11-19T04:47:38.784Z,-3.20
2022-11-19T04:50:06.479Z,-3.20
2022-11-19T04:52:37.803Z,-3.10
2022-11-19T04:55:07.867Z,-3.10
2022-11-19T04:57:34.882Z,-3.20
2022-11-19T05:00:01.993Z,-3.20
2022-11-19T05:02:29.187Z,-4.00
2022-11-19T05:04:56.239Z,-3.20
2022-11-19T05:07:23.309Z,-3.20
2022-11-19T05:09:50.374Z,-3.30
2022-11-19T05:12:17.321Z,-3.20
2022-11-19T05:14:45.158Z,-3.30
2022-11-19T05:17:12.392Z,-3.30
2022-11-19T05:19:39.423Z,-3.30
2022-11-19T05:22:06.414Z,-3.30
2022-11-19T05:24:33.440Z,-3.30
2022-11-19T05:27:00.476Z,-3.30
2022-11-19T05:29:27.503Z,-3.30
2022-11-19T05:31:54.540Z,-3.30
2022-11-19T05:34:21.551Z,-3.30
2022-11-19T05:36:48.631Z,-3.30
2022-11-19T05:39:21.576Z,-3.30
2022-11-19T05:41:49.343Z,-3.30
2022-11-19T05:44:16.478Z,-3.30
2022-11-19T05:46:43.786Z,-3.30
2022-11-19T05:49:10.817Z,-3.30
2022-11-19T05:51:37.973Z,-3.30
2022-11-19T05:54:05.172Z,-3.20
2022-11-19T05:56:32.223Z,-3.30
2022-11-19T05:58:59.288Z,-3.40
2022-11-19T06:01:27.537Z,-3.30
2022-11-19T06:03:55.000Z,-3.80
2022-11-19T06:06:22.673Z,-3.40
2022-11-19T06:08:49.974Z,-3.40
2022-11-19T06:11:37.254Z,-3.40
2022-11-19T06:14:04.574Z,-3.40
2022-11-19T06:16:31.588Z,-3.30
2022-11-19T06:18:58.713Z,-4.40
2022-11-19T06:21:25.831Z,-3.30
2022-11-19T06:23:52.857Z,-3.80
2022-11-19T06:26:28.994Z,-3.40
2022-11-19T06:28:56.589Z,-3.40
2022-11-19T06:31:23.885Z,-3.30
2022-11-19T06:33:51.071Z,-3.30
2022-11-19T06:36:18.074Z,-3.40
2022-11-19T06:38:45.065Z,-3.50
2022-11-19T06:41:12.076Z,-3.30
2022-11-19T06:43:39.079Z,-3.20
2022-11-19T06:46:06.409Z,-3.30
2022-11-19T06:48:33.508Z,-3.50
2022-11-19T06:51:01.861Z,-3.40
2022-11-19T06:53:29.246Z,-3.30
2022-11-19T06:55:59.045Z,-3.30
2022-11-19T06:58:26.294Z,-3.30
2022-11-19T07:00:53.307Z,-3.30
2022-11-19T07:03:20.729Z,-3.30
2022-11-19T07:05:48.869Z,-3.30
2022-11-19T07:08:16.644Z,-3.30
2022-11-19T07:10:43.978Z,-3.30
2022-11-19T07:13:19.639Z,-4.20
2022-11-19T07:15:46.745Z,-4.70
2022-11-19T07:18:14.434Z,-3.30
2022-11-19T07:20:41.625Z,-3.30
2022-11-19T07:23:11.120Z,-3.20
2022-11-19T07:25:39.396Z,-3.20
2022-11-19T07:28:06.550Z,-3.20
2022-11-19T07:30:33.671Z,-3.20
2022-11-19T07:33:00.735Z,-3.20
2022-11-19T07:35:27.724Z,-3.10
2022-11-19T07:37:54.812Z,-3.10
2022-11-19T07:40:21.871Z,-3.00
2022-11-19T07:42:50.111Z,-3.00
2022-11-19T07:45:18.830Z,-3.00
2022-11-19T07:47:45.931Z,-3.10
2022-11-19T07:50:13.679Z,-4.50
2022-11-19T07:52:41.243Z,-3.00
2022-11-19T07:55:09.354Z,-2.90
2022-11-19T07:57:36.440Z,-3.00
2022-11-19T08:00:05.387Z,-2.90
2022-11-19T08:02:32.411Z,-2.90
2022-11-19T08:04:59.474Z,-2.90
2022-11-19T08:07:26.677Z,-2.90
2022-11-19T08:09:53.766Z,-3.00
2022-11-19T08:12:20.844Z,-3.00
2022-11-19T08:14:47.872Z,-3.00
2022-11-19T08:17:34.792Z,-3.00
2022-11-19T08:20:02.242Z,-4.40
2022-11-19T08:22:29.951Z,-2.90
2022-11-19T08:24:56.980Z,-2.90
2022-11-19T08:27:24.106Z,-2.90
2022-11-19T08:29:51.337Z,-2.90
2022-11-19T08:32:18.370Z,-2.90
2022-11-19T08:34:45.378Z,-2.90
2022-11-19T08:37:15.317Z,-2.80
2022-11-19T08:39:42.354Z,-2.70
2022-11-19T08:42:30.341Z,-2.70
2022-11-19T08:44:58.674Z,-2.60
2022-11-19T08:47:25.690Z,-2.60
2022-11-19T08:49:53.363Z,-2.50
2022-11-19T08:52:20.363Z,-2.50
2022-11-19T08:54:47.371Z,-2.50
2022-11-19T08:57:14.410Z,-2.50
2022-11-19T08:59:41.498Z,-2.50
2022-11-19T09:02:11.376Z,-2.50
2022-11-19T09:04:38.521Z,-2.40
2022-11-19T09:07:05.869Z,-2.40
2022-11-19T09:09:33.141Z,-2.40
2022-11-19T09:12:00.281Z,-2.40
2022-11-19T09:14:27.501Z,-2.30
2022-11-19T09:16:54.513Z,-2.30
2022-11-19T09:19:21.606Z,-2.30
2022-11-19T09:21:49.036Z,-2.20
2022-11-19T09:24:16.045Z,-2.30
2022-11-19T09:26:43.078Z,-2.30
2022-11-19T09:29:10.136Z,-2.30
2022-11-19T09:31:37.229Z,-2.40
2022-11-19T09:34:04.403Z,-2.40
2022-11-19T09:36:31.458Z,-2.40
2022-11-19T09:38:58.868Z,-2.50
2022-11-19T09:41:53.293Z,-2.40
2022-11-19T09:44:38.196Z,-2.50
2022-11-19T09:47:44.935Z,-2.60
2022-11-19T09:50:25.148Z,-2.40
2022-11-19T09:53:02.136Z,-2.50
2022-11-19T09:55:36.908Z,-2.50
2022-11-19T09:58:07.571Z,-2.40
2022-11-19T10:00:34.724Z,-2.20
2022-11-19T10:03:11.539Z,-2.20
2022-11-19T10:06:18.545Z,-2.10
2022-11-19T10:09:27.028Z,-2.10
2022-11-19T10:12:33.932Z,-2.30
2022-11-19T10:15:33.193Z,-2.60
2022-11-19T10:18:44.060Z,-2.50
2022-11-19T10:21:22.527Z,-2.50
2022-11-19T10:24:29.338Z,-2.40
2022-11-19T10:27:05.753Z,-2.30
2022-11-19T10:29:40.438Z,-2.20
2022-11-19T10:32:39.123Z,-2.40
2022-11-19T10:35:16.877Z,-2.50
2022-11-19T10:38:12.360Z,-2.40
2022-11-19T10:40:45.125Z,-2.30
2022-11-19T10:43:38.795Z,-2.40
2022-11-19T10:46:10.943Z,-2.50
2022-11-19T10:48:42.864Z,-2.50
2022-11-19T10:51:14.608Z,-2.50
2022-11-19T10:53:42.833Z,-2.50
2022-11-19T10:56:17.648Z,-1.00
2022-11-19T10:58:52.770Z,-2.60
2022-11-19T11:01:40.666Z,-3.30
2022-11-19T11:04:32.266Z,-2.30
2022-11-19T11:07:50.939Z,-2.40
2022-11-19T11:10:42.793Z,-2.30
2022-11-19T11:13:56.077Z,-2.40
2022-11-19T11:16:26.704Z,-2.50
2022-11-19T11:18:56.614Z,-2.30
2022-11-19T11:21:40.583Z,-2.40
2022-11-19T11:24:08.240Z,-2.50
2022-11-19T11:26:37.982Z,-2.50
2022-11-19T11:29:23.772Z,-2.50
2022-11-19T11:31:50.742Z,-2.50
2022-11-19T11:34:38.439Z,-2.70
2022-11-19T11:37:08.790Z,-2.70
2022-11-19T11:39:39.249Z,-2.70
2022-11-19T11:42:17.463Z,-2.70
2022-11-19T11:45:01.792Z,-2.70
2022-11-19T11:47:32.797Z,-2.60
2022-11-19T11:50:08.750Z,-2.60
2022-11-19T11:52:53.658Z,-2.70
2022-11-19T11:55:36.233Z,-2.70
2022-11-19T11:58:23.724Z,-2.70
2022-11-19T12:00:55.464Z,-2.70
2022-11-19T12:03:22.811Z,-2.70
2022-11-19T12:06:13.043Z,-2.70
2022-11-19T12:09:06.120Z,-2.70
2022-11-19T12:11:55.199Z,-2.60
2022-11-19T12:15:01.970Z,-2.60
2022-11-19T12:18:08.689Z,-2.50
2022-11-19T12:21:15.368Z,-2.40
2022-11-19T12:24:22.151Z,-2.40
2022-11-19T12:27:16.446Z,-2.40
2022-11-19T12:30:07.170Z,-2.40
2022-11-19T12:33:14.093Z,-2.30
2022-11-19T12:36:23.870Z,-2.30
2022-11-19T12:39:31.093Z,-2.30
2022-11-19T12:42:37.767Z,-2.20
2022-11-19T12:45:31.401Z,-2.30
2022-11-19T12:48:15.322Z,-2.30
2022-11-19T12:51:07.278Z,-2.30
2022-11-19T12:54:02.340Z,-2.20
2022-11-19T12:56:51.549Z,-2.30
2022-11-19T12:59:58.295Z,-2.20
2022-11-19T13:02:31.657Z,-2.20
2022-11-19T13:05:04.999Z,-2.30
2022-11-19T13:07:37.674Z,-2.30
2022-11-19T13:10:27.676Z,-2.40
2022-11-19T13:12:58.098Z,-2.40
2022-11-19T13:15:45.746Z,-2.40
2022-11-19T13:18:18.342Z,-2.40
2022-11-19T13:20:50.704Z,-2.40
2022-11-19T13:23:39.886Z,-2.50
2022-11-19T13:26:14.993Z,-2.50
2022-11-19T13:28:51.244Z,-2.50
2022-11-19T13:31:40.801Z,-2.50
2022-11-19T13:34:23.087Z,-2.50
2022-11-19T13:37:02.474Z,-2.50
2022-11-19T13:39:43.507Z,-2.50
2022-11-19T13:42:30.834Z,-2.50
2022-11-19T13:44:59.627Z,-2.40
2022-11-19T13:47:33.047Z,-2.30
2022-11-19T13:50:05.463Z,-2.10
2022-11-19T13:52:57.327Z,-2.10
2022-11-19T13:55:44.981Z,-2.00
2022-11-19T13:58:43.959Z,-2.00
2022-11-19T14:01:51.248Z,-2.00
2022-11-19T14:04:50.898Z,-2.00
2022-11-19T14:07:45.566Z,-2.00
2022-11-19T14:10:36.935Z,-2.00
2022-11-19T14:13:45.507Z,-2.00
2022-11-19T14:17:12.429Z,-2.00
2022-11-19T14:20:17.080Z,-2.00
2022-11-19T14:23:14.961Z,-2.00
2022-11-19T14:26:20.942Z,-2.00
2022-11-19T14:28:50.599Z,-1.90
2022-11-19T14:31:19.776Z,-1.90
2022-11-19T14:34:24.958Z,-1.90
2022-11-19T14:36:55.722Z,-2.00
2022-11-19T14:39:29.294Z,-2.10
2022-11-19T14:42:20.533Z,-2.10
2022-11-19T14:45:27.225Z,-2.10
2022-11-19T14:48:04.213Z,-2.10
2022-11-19T14:50:31.757Z,-2.20
2022-11-19T14:53:01.215Z,-2.20
2022-11-19T14:55:30.715Z,-2.30
2022-11-19T14:58:21.436Z,-2.30
2022-11-19T15:00:48.801Z,-2.30
2022-11-19T15:03:23.805Z,-2.20
2022-11-19T15:05:51.428Z,-2.30
2022-11-19T15:08:56.977Z,-2.30
2022-11-19T15:11:24.691Z,-2.30
2022-11-19T15:14:35.496Z,-2.30
2022-11-19T15:17:07.005Z,-2.30
2022-11-19T15:20:13.709Z,-2.30
2022-11-19T15:22:55.050Z,-2.30
2022-11-19T15:25:54.410Z,-2.30
2022-11-19T15:29:01.171Z,-2.40
2022-11-19T15:32:08.225Z,-2.40
2022-11-19T15:35:11.552Z,-2.40
2022-11-19T15:38:04.011Z,-2.50
2022-11-19T15:40:34.404Z,-2.60
2022-11-19T15:43:41.324Z,-2.60
2022-11-19T15:46:16.729Z,-2.70
2022-11-19T15:49:04.114Z,-2.70
2022-11-19T15:51:45.158Z,-2.80
2022-11-19T15:54:12.515Z,-2.80
2022-11-19T15:56:43.855Z,-2.80
2022-11-19T15:59:13.061Z,-2.80
2022-11-19T16:01:41.414Z,-2.80
2022-11-19T16:04:16.123Z,-2.80
2022-11-19T16:06:48.906Z,-2.70
2022-11-19T16:09:22.034Z,-2.80
2022-11-19T16:12:10.014Z,-2.70
2022-11-19T16:14:57.207Z,-2.80
2022-11-19T16:17:39.763Z,-2.80
2022-11-19T16:20:22.346Z,-2.90
2022-11-19T16:23:08.323Z,-2.70
2022-11-19T16:25:55.438Z,-2.70
2022-11-19T16:28:27.937Z,-2.70
2022-11-19T16:31:05.310Z,-2.70
2022-11-19T16:33:34.217Z,-2.70
2022-11-19T16:36:21.189Z,-2.60
2022-11-19T16:38:51.595Z,-2.70
2022-11-19T16:41:41.962Z,-2.70
2022-11-19T16:44:14.271Z,-2.70
2022-11-19T16:46:41.552Z,-2.60
2022-11-19T16:49:32.329Z,-2.70
2022-11-19T16:52:00.165Z,-2.70
2022-11-19T16:54:46.513Z,-2.60
2022-11-19T16:57:17.700Z,-2.60
2022-11-19T16:59:52.889Z,-2.60
2022-11-19T17:02:24.326Z,-2.60
2022-11-19T17:04:53.944Z,-2.70
2022-11-19T17:07:24.426Z,-2.60
2022-11-19T17:10:30.395Z,-2.70
2022-11-19T17:13:02.957Z,-2.60
2022-11-19T17:15:41.821Z,-2.60
2022-11-19T17:18:32.310Z,-2.60
2022-11-19T17:21:03.881Z,-2.60
2022-11-19T17:23:34.430Z,-2.60
2022-11-19T17:26:04.659Z,-2.60
2022-11-19T17:28:59.607Z,-2.60
2022-11-19T17:31:28.095Z,-2.60
2022-11-19T17:33:58.152Z,-2.70
2022-11-19T17:36:28.037Z,-2.80
2022-11-19T17:38:55.307Z,-2.70
2022-11-19T17:41:45.860Z,-2.70
2022-11-19T17:44:35.726Z,-2.80
2022-11-19T17:47:21.184Z,-2.80
2022-11-19T17:49:51.246Z,-2.80
2022-11-19T17:52:34.245Z,-2.80
2022-11-19T17:55:17.928Z,-2.80
2022-11-19T17:57:45.046Z,-2.80
2022-11-19T18:00:13.904Z,-2.80
2022-11-19T18:02:41.805Z,-2.80
2022-11-19T18:05:21.210Z,-2.80
2022-11-19T18:07:48.810Z,-2.80
2022-11-19T18:10:16.006Z,-2.90
2022-11-19T18:12:43.998Z,-2.90
2022-11-19T18:15:17.904Z,-2.80
2022-11-19T18:17:46.188Z,-2.90
2022-11-19T18:20:13.913Z,-2.90
2022-11-19T18:22:41.249Z,-2.80
2022-11-19T18:25:16.055Z,-2.80
2022-11-19T18:27:43.313Z,-2.80
2022-11-19T18:30:11.751Z,-2.80
2022-11-19T18:32:39.580Z,-2.70
2022-11-19T18:35:15.580Z,-2.70
2022-11-19T18:37:43.400Z,-2.70
2022-11-19T18:40:11.735Z,-2.70
2022-11-19T18:42:38.942Z,-2.80
2022-11-19T18:45:07.150Z,-2.80
2022-11-19T18:47:34.256Z,-2.80
2022-11-19T18:50:01.378Z,-2.80
2022-11-19T18:52:28.459Z,-2.80
2022-11-19T18:54:55.569Z,-2.70
2022-11-19T18:57:23.005Z,-2.80
2022-11-19T18:59:50.134Z,-2.80
2022-11-19T19:02:18.825Z,-2.80
2022-11-19T19:04:50.674Z,-2.90
2022-11-19T19:07:18.692Z,-2.90
2022-11-19T19:09:46.013Z,-3.00
2022-11-19T19:12:21.638Z,-2.90
2022-11-19T19:14:51.776Z,-3.00
2022-11-19T19:17:20.083Z,-2.90
2022-11-19T19:19:50.338Z,-3.10
2022-11-19T19:22:18.538Z,-3.00
2022-11-19T19:24:46.137Z,-3.00
2022-11-19T19:27:13.402Z,-2.90
2022-11-19T19:29:40.577Z,-3.00
2022-11-19T19:32:08.364Z,-3.00
2022-11-19T19:34:36.615Z,-3.00
2022-11-19T19:37:04.937Z,-3.00
2022-11-19T19:39:32.522Z,-3.00
2022-11-19T19:41:59.724Z,-3.00
2022-11-19T19:44:26.749Z,-3.00
2022-11-19T19:47:00.939Z,-3.00
2022-11-19T19:49:28.133Z,-2.90
2022-11-19T19:51:55.622Z,-2.90
2022-11-19T19:54:22.926Z,-2.90
2022-11-19T19:56:52.687Z,-2.90
2022-11-19T19:59:20.074Z,-2.90
2022-11-19T20:01:47.621Z,-3.00
2022-11-19T20:04:16.781Z,-3.20
2022-11-19T20:06:49.088Z,-3.00
2022-11-19T20:09:18.495Z,-3.00
2022-11-19T20:11:47.663Z,-3.00
2022-11-19T20:14:14.839Z,-3.00
2022-11-19T20:16:42.610Z,-3.00
2022-11-19T20:19:16.292Z,-3.00
2022-11-19T20:21:43.587Z,-3.00
2022-11-19T20:24:13.690Z,-3.00
2022-11-19T20:26:43.164Z,-3.00
2022-11-19T20:29:12.151Z,-3.00
2022-11-19T20:31:40.407Z,-3.10
2022-11-19T20:34:07.726Z,-3.10
2022-11-19T20:36:35.929Z,-3.10
2022-11-19T20:39:03.184Z,-3.00
2022-11-19T20:41:50.714Z,-3.00
2022-11-19T20:44:22.865Z,-3.00
2022-11-19T20:46:54.471Z,-3.00
2022-11-19T20:49:24.722Z,-3.00
2022-11-19T20:51:53.364Z,-3.00
2022-11-19T20:54:21.765Z,-3.00
2022-11-19T20:56:50.253Z,-3.00
2022-11-19T20:59:18.496Z,-3.00
2022-11-19T21:01:51.892Z,-3.00
2022-11-19T21:04:40.481Z,-3.00
2022-11-19T21:07:07.832Z,-2.90
2022-11-19T21:09:35.022Z,-2.90
2022-11-19T21:12:04.740Z,-3.00
2022-11-19T21:14:32.335Z,-2.60
2022-11-19T21:17:02.010Z,-3.00
2022-11-19T21:19:29.193Z,-2.90
2022-11-19T21:21:56.310Z,-2.90
2022-11-19T21:24:23.486Z,-2.90
2022-11-19T21:26:50.863Z,-2.90
2022-11-19T21:29:19.987Z,-2.90
2022-11-19T21:31:48.510Z,-2.90
2022-11-19T21:34:18.765Z,-2.70
2022-11-19T21:36:47.133Z,-2.90
2022-11-19T21:39:16.597Z,-2.90
2022-11-19T21:41:46.898Z,-3.00
2022-11-19T21:44:20.810Z,-3.00
2022-11-19T21:46:49.173Z,-3.00
2022-11-19T21:49:16.616Z,-3.00
2022-11-19T21:51:44.633Z,-2.90
2022-11-19T21:54:41.767Z,-2.90
2022-11-19T21:57:11.759Z,-2.90
2022-11-19T22:00:02.273Z,-2.90
2022-11-19T22:05:10.858Z,-2.50
2022-11-19T22:07:40.598Z,-3.20
2022-11-19T22:10:08.406Z,-2.80
2022-11-19T22:12:35.815Z,-3.90
2022-11-19T22:15:03.836Z,-2.90
2022-11-19T22:17:32.910Z,-2.90
2022-11-19T22:20:00.441Z,-2.90
2022-11-19T22:22:27.836Z,-2.90
2022-11-19T22:24:55.108Z,-2.80
2022-11-19T22:27:22.586Z,-2.80
2022-11-19T22:29:49.826Z,-2.90
2022-11-19T22:32:16.929Z,-2.90
2022-11-19T22:34:44.014Z,-2.80
2022-11-19T22:37:11.706Z,-2.80
2022-11-19T22:39:39.056Z,-2.80
2022-11-19T22:42:06.676Z,-2.80
2022-11-19T22:44:34.009Z,-2.80
2022-11-19T22:47:01.740Z,-2.70
2022-11-19T22:49:29.094Z,-2.70
2022-11-19T22:51:56.451Z,-2.70
2022-11-19T22:54:23.632Z,-2.70
2022-11-19T22:56:51.098Z,-2.70
2022-11-19T22:59:18.761Z,-2.70
2022-11-19T23:01:46.225Z,-2.60
2022-11-19T23:04:15.098Z,-2.60
2022-11-19T23:06:42.292Z,-2.60
2022-11-19T23:09:10.358Z,-2.60
2022-11-19T23:11:58.071Z,-2.60
2022-11-19T23:14:26.007Z,-2.60
2022-11-19T23:16:53.193Z,-2.60
2022-11-19T23:19:20.723Z,-2.50
2022-11-19T23:21:48.971Z,-2.60
2022-11-19T23:24:16.848Z,-2.60
2022-11-19T23:26:44.506Z,-2.70
2022-11-19T23:29:11.811Z,-2.70
2022-11-19T23:31:43.116Z,-2.70
2022-11-19T23:34:10.358Z,-2.70
2022-11-19T23:36:40.707Z,-2.70
2022-11-19T23:39:14.721Z,-2.70
2022-11-19T23:41:42.228Z,-2.70
2022-11-19T23:44:10.104Z,-2.60
2022-11-19T23:46:37.461Z,-2.50
2022-11-19T23:49:05.608Z,-2.20
2022-11-19T23:51:38.690Z,-2.40
2022-11-19T23:54:08.227Z,-3.80
2022-11-19T23:56:36.368Z,-2.50
2022-11-19T23:59:05.123Z,-2.50
